Time;durP1;ratioP1;P1;durP2;ratioP2;P2;SDS_P1;SDS_P2;PMS_P1;PMS_P2;Temp;Humidity;BMP_temperature;BMP_pressure;BME280_temperature;BME280_humidity;BME280_pressure;Samples;Min_cycle;Max_cycle;Signal;HPM_P1;HPM_P2
2022/01/31 00:01:27;;;;;;;18.02;6.20;;;5.00;94.50;;;;;;5070684;28;20027;-58
2022/01/31 00:03:53;;;;;;;19.40;6.65;;;5.00;94.60;;;;;;5065414;28;20041;-58
2022/01/31 00:06:18;;;;;;;21.50;5.70;;;5.00;94.70;;;;;;5066364;28;20449;-58
2022/01/31 00:08:44;;;;;;;18.40;5.75;;;5.00;94.80;;;;;;5069168;28;20044;-58
2022/01/31 00:11:11;;;;;;;22.25;5.53;;;5.00;94.90;;;;;;5067888;28;20050;-58
2022/01/31 00:13:40;;;;;;;14.70;5.22;;;5.00;94.90;;;;;;5067096;28;20044;-58
2022/01/31 00:16:08;;;;;;;17.88;5.45;;;5.00;94.90;;;;;;5070571;28;20111;-58
2022/01/31 00:18:34;;;;;;;18.42;6.28;;;5.00;95.00;;;;;;5062363;28;21223;-58
2022/01/31 00:20:59;;;;;;;18.38;6.10;;;5.00;95.00;;;;;;5080639;28;20025;-58
2022/01/31 00:23:25;;;;;;;21.27;5.80;;;5.00;95.00;;;;;;5070344;28;20036;-58
2022/01/31 00:25:51;;;;;;;21.25;5.88;;;5.00;95.10;;;;;;5068888;28;20086;-58
2022/01/31 00:28:16;;;;;;;18.92;6.40;;;5.10;95.20;;;;;;5067111;28;20067;-58
2022/01/31 00:30:42;;;;;;;22.02;6.88;;;5.10;95.20;;;;;;5064680;28;20025;-58
2022/01/31 00:33:08;;;;;;;18.58;6.55;;;5.10;95.20;;;;;;5062720;28;20037;-58
2022/01/31 00:35:34;;;;;;;23.48;6.82;;;5.10;95.20;;;;;;5063851;28;20016;-58
2022/01/31 00:38:00;;;;;;;18.63;5.13;;;5.10;95.20;;;;;;5067354;28;20047;-58
2022/01/31 00:40:25;;;;;;;21.70;5.68;;;5.10;95.30;;;;;;5070090;28;20016;-58
2022/01/31 00:42:51;;;;;;;25.35;6.70;;;5.10;95.60;;;;;;5067129;28;20031;-58
2022/01/31 00:45:25;;;;;;;19.85;6.13;;;5.00;96.00;;;;;;5066447;28;20024;-58
2022/01/31 00:48:00;;;;;;;16.38;5.07;;;5.00;96.30;;;;;;5066463;28;20099;-58
2022/01/31 00:50:27;;;;;;;22.08;6.72;;;5.00;96.50;;;;;;5065281;28;20032;-58
2022/01/31 00:52:52;;;;;;;17.52;5.63;;;5.00;96.80;;;;;;5064238;28;20036;-58
2022/01/31 00:55:18;;;;;;;19.88;5.40;;;4.90;97.10;;;;;;5069555;28;20107;-58
2022/01/31 00:57:44;;;;;;;20.02;5.53;;;4.90;97.50;;;;;;5064260;28;20017;-58
2022/01/31 01:00:14;;;;;;;19.23;6.00;;;4.90;97.80;;;;;;5067126;28;20399;-58
2022/01/31 01:02:40;;;;;;;19.52;6.57;;;4.90;98.00;;;;;;5064148;28;20055;-58
2022/01/31 01:05:06;;;;;;;15.95;6.60;;;4.90;98.40;;;;;;5067552;28;20025;-58
2022/01/31 01:07:31;;;;;;;19.08;5.28;;;4.90;98.80;;;;;;5060123;28;20013;-58
2022/01/31 01:09:57;;;;;;;20.13;5.90;;;4.80;99.20;;;;;;5064753;28;20048;-58
2022/01/31 01:12:22;;;;;;;19.73;5.55;;;4.80;99.60;;;;;;5065928;28;20051;-58
2022/01/31 01:14:49;;;;;;;22.02;5.72;;;4.80;99.90;;;;;;5062999;28;20051;-58
2022/01/31 01:17:15;;;;;;;18.95;5.90;;;4.70;99.90;;;;;;5060365;28;20024;-58
2022/01/31 01:19:41;;;;;;;22.85;6.00;;;4.70;99.90;;;;;;5067129;28;20021;-58
2022/01/31 01:22:06;;;;;;;17.48;6.00;;;4.70;99.90;;;;;;5068913;28;20035;-58
2022/01/31 01:24:32;;;;;;;17.30;6.00;;;4.60;99.90;;;;;;5066774;28;20040;-58
2022/01/31 01:26:57;;;;;;;20.45;7.20;;;4.60;99.90;;;;;;5062992;28;20066;-58
2022/01/31 01:29:23;;;;;;;18.55;6.43;;;4.60;99.90;;;;;;5063748;28;20397;-58
2022/01/31 01:31:49;;;;;;;16.67;6.40;;;4.60;99.90;;;;;;5067698;28;20027;-58
2022/01/31 01:34:16;;;;;;;17.58;7.55;;;4.60;99.90;;;;;;5066043;28;20040;-58
2022/01/31 01:36:44;;;;;;;31.20;7.97;;;4.50;99.90;;;;;;5066039;28;20147;-59
2022/01/31 01:39:10;;;;;;;17.52;7.15;;;4.50;99.90;;;;;;5067041;28;20060;-59
2022/01/31 01:41:35;;;;;;;20.20;6.57;;;4.50;99.90;;;;;;5068005;28;20511;-58
2022/01/31 01:44:01;;;;;;;16.58;6.38;;;4.50;99.90;;;;;;5068930;28;20035;-59
2022/01/31 01:46:27;;;;;;;23.90;7.28;;;4.50;99.90;;;;;;5068721;28;20024;-58
2022/01/31 01:48:53;;;;;;;21.50;8.40;;;4.50;99.90;;;;;;5066104;28;20555;-58
2022/01/31 01:51:18;;;;;;;20.35;8.25;;;4.50;99.90;;;;;;5068683;28;20020;-59
2022/01/31 01:53:44;;;;;;;17.58;7.55;;;4.50;99.90;;;;;;5063140;28;20029;-58
2022/01/31 01:56:10;;;;;;;17.45;7.40;;;4.50;99.90;;;;;;5068545;28;20040;-58
2022/01/31 01:58:41;;;;;;;17.15;7.15;;;4.50;99.90;;;;;;5065882;28;20021;-58
2022/01/31 02:01:07;;;;;;;21.83;8.27;;;4.50;99.90;;;;;;5064348;28;20039;-58
2022/01/31 02:03:36;;;;;;;24.08;7.65;;;4.50;99.90;;;;;;5065089;28;20107;-58
2022/01/31 02:06:03;;;;;;;15.73;7.82;;;4.50;99.90;;;;;;5063128;28;20396;-58
2022/01/31 02:08:29;;;;;;;22.05;8.23;;;4.50;99.90;;;;;;5068547;28;20115;-59
2022/01/31 02:10:55;;;;;;;20.10;7.57;;;4.50;99.90;;;;;;5065746;28;20077;-59
2022/01/31 02:13:24;;;;;;;19.55;7.82;;;4.50;99.90;;;;;;5078415;28;20049;-58
2022/01/31 02:15:50;;;;;;;21.75;9.85;;;4.60;99.90;;;;;;5065561;28;20532;-59
2022/01/31 02:18:18;;;;;;;22.73;7.80;;;4.50;99.90;;;;;;5065280;28;20052;-58
2022/01/31 02:20:44;;;;;;;16.08;7.75;;;4.60;99.90;;;;;;5064580;28;20465;-59
2022/01/31 02:23:12;;;;;;;15.65;8.05;;;4.60;99.90;;;;;;5063689;28;20040;-59
2022/01/31 02:26:00;;;;;;;17.48;7.43;;;4.60;99.90;;;;;;5067919;28;20101;-59
2022/01/31 02:28:28;;;;;;;19.00;8.48;;;4.70;99.90;;;;;;5068768;28;20412;-59
2022/01/31 02:30:54;;;;;;;19.85;8.63;;;4.70;99.90;;;;;;5065605;28;20024;-58
2022/01/31 02:33:21;;;;;;;21.40;9.00;;;4.70;99.90;;;;;;5065214;28;20035;-58
2022/01/31 02:35:48;;;;;;;22.05;9.40;;;4.70;99.90;;;;;;5065631;28;20058;-59
2022/01/31 02:38:14;;;;;;;19.05;8.80;;;4.80;99.90;;;;;;5065339;28;20119;-58
2022/01/31 02:40:40;;;;;;;20.70;7.85;;;4.80;99.90;;;;;;5065353;28;20531;-59
2022/01/31 02:43:06;;;;;;;19.20;7.47;;;4.90;99.90;;;;;;5062664;28;20029;-58
2022/01/31 02:45:32;;;;;;;14.65;7.28;;;4.90;99.90;;;;;;5065229;28;20384;-59
2022/01/31 02:47:59;;;;;;;15.30;6.32;;;5.00;99.90;;;;;;5068135;28;20468;-58
2022/01/31 02:50:25;;;;;;;13.55;6.15;;;5.00;99.90;;;;;;5066959;28;20020;-58
2022/01/31 02:53:09;;;;;;;12.57;6.57;;;5.10;99.90;;;;;;5066895;28;20032;-58
2022/01/31 02:55:34;;;;;;;11.38;6.32;;;5.10;99.90;;;;;;5065870;28;20055;-58
2022/01/31 02:58:00;;;;;;;11.82;5.80;;;5.20;99.90;;;;;;5067095;28;20060;-59
2022/01/31 03:00:25;;;;;;;10.68;5.90;;;5.20;99.90;;;;;;5063080;28;20848;-58
2022/01/31 03:02:51;;;;;;;12.57;4.95;;;5.30;99.90;;;;;;5062374;28;20075;-58
2022/01/31 03:05:16;;;;;;;13.70;5.10;;;5.30;99.90;;;;;;5064932;28;20033;-58
2022/01/31 03:07:42;;;;;;;10.60;4.30;;;5.40;99.90;;;;;;5065459;28;20500;-58
2022/01/31 03:10:08;;;;;;;14.88;5.93;;;5.40;99.90;;;;;;5062296;28;20086;-58
2022/01/31 03:12:33;;;;;;;16.55;4.30;;;5.50;99.90;;;;;;5065259;28;20091;-58
2022/01/31 03:14:59;;;;;;;13.02;4.85;;;5.50;99.90;;;;;;5064234;28;20492;-58
2022/01/31 03:17:24;;;;;;;12.38;5.10;;;5.50;99.90;;;;;;5062713;28;20131;-58
2022/01/31 03:19:53;;;;;;;11.85;5.20;;;5.60;99.90;;;;;;5069027;28;20025;-58
2022/01/31 03:22:20;;;;;;;13.03;5.30;;;5.60;99.90;;;;;;5068288;28;20016;-58
2022/01/31 03:24:47;;;;;;;17.05;4.88;;;5.60;99.90;;;;;;5065098;28;20259;-59
2022/01/31 03:27:13;;;;;;;17.30;4.53;;;5.70;99.90;;;;;;5060628;28;20041;-58
2022/01/31 03:29:38;;;;;;;14.38;4.82;;;5.70;99.90;;;;;;5064906;28;20135;-58
2022/01/31 03:32:04;;;;;;;13.85;4.00;;;5.80;99.90;;;;;;5058466;28;20370;-58
2022/01/31 03:34:30;;;;;;;14.57;3.65;;;5.80;99.90;;;;;;5065714;28;20033;-58
2022/01/31 03:36:55;;;;;;;13.27;3.83;;;5.80;99.90;;;;;;5071088;28;20039;-58
2022/01/31 03:39:21;;;;;;;11.52;3.55;;;5.90;99.90;;;;;;5068327;28;20016;-58
2022/01/31 03:41:47;;;;;;;12.85;3.58;;;5.90;99.90;;;;;;5068543;28;20016;-59
2022/01/31 03:44:13;;;;;;;14.88;2.78;;;5.90;99.90;;;;;;5068254;28;20475;-58
2022/01/31 03:46:38;;;;;;;13.48;3.03;;;6.00;99.90;;;;;;5068127;28;20044;-58
2022/01/31 03:49:04;;;;;;;12.85;2.67;;;6.00;99.90;;;;;;5071018;28;20056;-59
2022/01/31 03:51:30;;;;;;;16.40;2.72;;;6.00;99.90;;;;;;5061434;28;20040;-59
2022/01/31 03:53:56;;;;;;;13.68;2.85;;;6.10;99.90;;;;;;5071144;28;20029;-59
2022/01/31 03:56:21;;;;;;;11.02;2.22;;;6.10;99.90;;;;;;5065437;28;20538;-59
2022/01/31 03:58:47;;;;;;;12.15;2.30;;;6.20;99.90;;;;;;5066660;28;20100;-59
2022/01/31 04:01:12;;;;;;;11.73;2.50;;;6.20;99.90;;;;;;5068597;28;20111;-59
2022/01/31 04:03:38;;;;;;;11.27;2.25;;;6.20;99.90;;;;;;5070412;28;20044;-58
2022/01/31 04:06:04;;;;;;;11.23;1.80;;;6.30;99.90;;;;;;5069284;28;20040;-59
2022/01/31 04:08:29;;;;;;;6.20;1.52;;;6.30;99.90;;;;;;5066628;28;20024;-58
2022/01/31 04:10:55;;;;;;;12.35;2.22;;;6.30;99.90;;;;;;5065263;28;20032;-59
2022/01/31 04:13:20;;;;;;;12.32;1.90;;;6.30;99.90;;;;;;5066839;28;20127;-59
2022/01/31 04:15:46;;;;;;;16.88;2.60;;;6.30;99.90;;;;;;5065901;28;20016;-59
2022/01/31 04:18:12;;;;;;;9.35;1.85;;;6.40;99.90;;;;;;5067594;28;20024;-59
2022/01/31 04:20:38;;;;;;;10.95;1.70;;;6.40;99.90;;;;;;5070297;28;20020;-59
2022/01/31 04:23:10;;;;;;;7.53;1.50;;;6.40;99.90;;;;;;5068098;28;20118;-59
2022/01/31 04:25:42;;;;;;;9.13;2.00;;;6.50;99.90;;;;;;5068995;28;20029;-59
2022/01/31 04:31:14;;;;;;;9.48;1.30;;;6.50;99.90;;;;;;5068954;28;20045;-59
2022/01/31 04:33:41;;;;;;;10.52;1.65;;;6.50;99.90;;;;;;5064240;28;20486;-59
2022/01/31 04:36:09;;;;;;;14.55;2.03;;;6.50;99.90;;;;;;5068660;28;20036;-59
2022/01/31 04:38:35;;;;;;;8.63;1.92;;;6.50;99.90;;;;;;5070339;28;20034;-59
2022/01/31 04:41:01;;;;;;;14.18;1.75;;;6.50;99.90;;;;;;5063104;28;20024;-59
2022/01/31 04:43:26;;;;;;;9.65;1.38;;;6.60;99.90;;;;;;5066857;28;20141;-59
2022/01/31 04:45:54;;;;;;;11.93;2.50;;;6.60;99.90;;;;;;5067290;28;20078;-59
2022/01/31 04:48:20;;;;;;;11.27;2.22;;;6.60;99.90;;;;;;5066819;28;20025;-59
2022/01/31 04:50:46;;;;;;;11.35;1.40;;;6.60;99.90;;;;;;5068489;28;20392;-59
2022/01/31 04:53:13;;;;;;;14.70;2.17;;;6.60;99.90;;;;;;5068041;28;20029;-58
2022/01/31 04:55:40;;;;;;;14.32;1.88;;;6.60;99.90;;;;;;5069308;28;20431;-59
2022/01/31 04:58:06;;;;;;;19.40;2.50;;;6.60;99.90;;;;;;5064462;28;20056;-59
2022/01/31 05:00:32;;;;;;;14.68;2.13;;;6.60;99.90;;;;;;5067050;28;20468;-58
2022/01/31 05:02:57;;;;;;;13.23;2.13;;;6.70;99.90;;;;;;5069432;28;20131;-59
2022/01/31 05:05:23;;;;;;;6.85;1.13;;;6.60;99.90;;;;;;5069354;28;20028;-59
2022/01/31 05:07:51;;;;;;;10.38;1.55;;;6.70;99.90;;;;;;5064305;28;20392;-59
2022/01/31 05:10:17;;;;;;;14.68;2.25;;;6.70;99.90;;;;;;5069392;28;20028;-59
2022/01/31 05:12:43;;;;;;;15.68;2.03;;;6.70;99.90;;;;;;5066495;28;20032;-59
2022/01/31 05:15:09;;;;;;;9.70;2.22;;;6.70;99.90;;;;;;5066721;28;20017;-59
2022/01/31 05:17:34;;;;;;;16.35;1.88;;;6.80;99.90;;;;;;5066801;28;20020;-59
2022/01/31 05:20:00;;;;;;;11.70;1.63;;;6.80;99.90;;;;;;5063076;28;20096;-59
2022/01/31 05:22:26;;;;;;;11.35;2.08;;;6.80;99.90;;;;;;5066551;28;20064;-59
2022/01/31 05:24:51;;;;;;;12.10;1.70;;;6.80;99.90;;;;;;5063660;28;20028;-58
2022/01/31 05:27:17;;;;;;;12.85;2.05;;;6.80;99.90;;;;;;5066291;28;20048;-59
2022/01/31 05:29:42;;;;;;;13.48;1.90;;;6.80;99.90;;;;;;5069491;28;20438;-59
2022/01/31 05:32:08;;;;;;;12.07;1.70;;;6.80;99.90;;;;;;5062032;28;20035;-59
2022/01/31 05:34:34;;;;;;;14.63;2.33;;;6.80;99.90;;;;;;5066470;28;20107;-59
2022/01/31 05:36:59;;;;;;;10.57;1.48;;;6.80;99.90;;;;;;5068377;28;20026;-59
2022/01/31 05:39:26;;;;;;;14.35;2.80;;;6.80;99.90;;;;;;5066414;28;20021;-59
2022/01/31 05:41:52;;;;;;;11.73;2.03;;;6.80;99.90;;;;;;5068970;28;20015;-59
2022/01/31 05:44:18;;;;;;;8.27;1.40;;;6.80;99.90;;;;;;5068659;28;20484;-59
2022/01/31 05:46:44;;;;;;;5.65;1.05;;;6.70;99.90;;;;;;5067264;28;20361;-59
2022/01/31 05:49:10;;;;;;;6.53;1.05;;;6.50;99.90;;;;;;5066413;28;20078;-59
2022/01/31 05:51:48;;;;;;;8.18;1.15;;;6.30;99.90;;;;;;5065886;28;20132;-59
2022/01/31 05:54:14;;;;;;;4.75;0.90;;;6.20;99.90;;;;;;5068584;28;20032;-59
2022/01/31 05:56:39;;;;;;;13.13;1.40;;;6.00;99.90;;;;;;5062793;28;20040;-58
2022/01/31 05:59:05;;;;;;;10.25;1.60;;;6.00;99.90;;;;;;5063101;28;20025;-59
2022/01/31 06:01:30;;;;;;;7.95;1.30;;;5.90;99.90;;;;;;5065751;28;20438;-59
2022/01/31 06:03:56;;;;;;;7.53;1.00;;;5.80;99.90;;;;;;5066167;28;20420;-59
2022/01/31 06:06:21;;;;;;;9.45;1.30;;;5.80;99.90;;;;;;5064115;28;20021;-59
2022/01/31 06:08:47;;;;;;;7.60;0.98;;;5.80;99.90;;;;;;5063137;28;20035;-59
2022/01/31 06:11:13;;;;;;;6.65;1.20;;;5.70;99.90;;;;;;5065653;28;20033;-59
2022/01/31 06:13:42;;;;;;;8.90;1.35;;;5.70;99.90;;;;;;5068069;28;20067;-59
2022/01/31 06:16:07;;;;;;;8.40;1.40;;;5.70;99.90;;;;;;5065706;28;20441;-59
2022/01/31 06:18:35;;;;;;;8.93;1.48;;;5.70;99.90;;;;;;5060826;28;20553;-59
2022/01/31 06:21:02;;;;;;;10.38;1.70;;;5.70;99.90;;;;;;5065117;28;20028;-59
2022/01/31 06:23:29;;;;;;;9.75;1.42;;;5.70;99.90;;;;;;5065608;28;20024;-59
2022/01/31 06:25:54;;;;;;;15.27;2.50;;;5.80;99.90;;;;;;5065537;28;20356;-59
2022/01/31 06:28:20;;;;;;;14.50;1.80;;;5.80;99.90;;;;;;5062460;28;20468;-59
2022/01/31 06:30:46;;;;;;;9.43;1.83;;;5.80;99.90;;;;;;5065503;28;20028;-59
2022/01/31 06:33:16;;;;;;;12.00;1.30;;;5.80;99.90;;;;;;5062639;28;20033;-59
2022/01/31 06:35:42;;;;;;;12.75;1.90;;;5.80;99.90;;;;;;5071340;28;20027;-59
2022/01/31 06:38:08;;;;;;;17.90;2.42;;;5.80;99.90;;;;;;5072233;28;20029;-59
2022/01/31 06:40:33;;;;;;;13.30;2.47;;;5.80;99.90;;;;;;5072588;28;20021;-58
2022/01/31 06:42:59;;;;;;;26.58;4.18;;;5.90;99.90;;;;;;5072461;28;20024;-59
2022/01/31 06:45:24;;;;;;;20.95;2.60;;;5.90;99.90;;;;;;5071218;28;20506;-58
2022/01/31 06:47:50;;;;;;;15.10;2.95;;;5.90;99.90;;;;;;5071494;28;20035;-58
2022/01/31 06:50:15;;;;;;;16.70;3.13;;;5.90;99.90;;;;;;5070264;28;20063;-58
2022/01/31 06:52:42;;;;;;;11.68;2.25;;;5.90;99.90;;;;;;5071820;28;20085;-58
2022/01/31 06:55:08;;;;;;;10.82;1.70;;;5.90;99.90;;;;;;5071799;28;20089;-59
2022/01/31 06:57:34;;;;;;;16.15;2.33;;;5.80;99.90;;;;;;5072471;28;20032;-58
2022/01/31 07:00:05;;;;;;;16.58;2.35;;;5.80;99.90;;;;;;5055807;28;20029;-59
2022/01/31 07:02:31;;;;;;;15.52;2.17;;;5.80;99.90;;;;;;5052392;28;20021;-58
2022/01/31 07:04:57;;;;;;;16.90;2.63;;;5.80;99.90;;;;;;5063013;28;20036;-58
2022/01/31 07:07:22;;;;;;;17.38;2.45;;;5.80;99.90;;;;;;5073101;28;20506;-58
2022/01/31 07:09:48;;;;;;;15.93;2.42;;;5.80;99.90;;;;;;5075055;28;20028;-58
2022/01/31 07:12:17;;;;;;;25.73;3.33;;;5.80;99.90;;;;;;5074898;28;20123;-58
2022/01/31 07:14:43;;;;;;;22.00;2.63;;;5.80;99.90;;;;;;5076102;28;20400;-59
2022/01/31 07:17:08;;;;;;;14.35;2.13;;;5.80;99.90;;;;;;5076076;28;20502;-58
2022/01/31 07:19:37;;;;;;;14.75;2.92;;;5.80;99.90;;;;;;5091605;28;20032;-59
2022/01/31 07:22:06;;;;;;;20.23;2.70;;;5.80;99.90;;;;;;5075846;28;20480;-58
2022/01/31 07:27:01;;;;;;;12.82;2.70;;;5.80;99.90;;;;;;5075685;28;20036;-58
2022/01/31 07:29:28;;;;;;;16.98;2.88;;;5.80;99.90;;;;;;5074510;28;20111;-58
2022/01/31 07:31:54;;;;;;;17.65;2.03;;;5.80;99.90;;;;;;5073917;28;20099;-58
2022/01/31 07:34:20;;;;;;;15.13;1.98;;;5.80;99.90;;;;;;5074103;28;20483;-58
2022/01/31 07:36:46;;;;;;;9.73;1.65;;;5.80;99.90;;;;;;5071175;28;20298;-58
2022/01/31 07:39:12;;;;;;;16.95;1.90;;;5.80;99.90;;;;;;5072662;28;20530;-59
2022/01/31 07:41:37;;;;;;;19.75;2.47;;;5.80;99.90;;;;;;5073870;28;20013;-58
2022/01/31 07:44:03;;;;;;;14.52;2.30;;;5.80;99.90;;;;;;5072426;28;20021;-58
2022/01/31 07:46:29;;;;;;;21.13;3.03;;;5.80;99.90;;;;;;5071908;28;20388;-58
2022/01/31 07:48:55;;;;;;;13.75;1.80;;;5.80;99.90;;;;;;5071954;28;20024;-59
2022/01/31 07:51:21;;;;;;;13.50;2.15;;;5.80;99.90;;;;;;5071207;28;20249;-59
2022/01/31 07:53:47;;;;;;;10.82;2.58;;;5.80;99.90;;;;;;5073412;28;20077;-59
2022/01/31 07:56:15;;;;;;;17.17;2.08;;;5.80;99.90;;;;;;5072277;28;20025;-58
2022/01/31 07:58:41;;;;;;;14.77;2.45;;;5.80;99.90;;;;;;5071108;28;20019;-59
2022/01/31 08:01:07;;;;;;;11.70;3.55;;;5.80;99.90;;;;;;5072317;28;20028;-59
2022/01/31 08:03:33;;;;;;;20.65;2.55;;;5.80;99.90;;;;;;5074810;28;20095;-59
2022/01/31 08:05:59;;;;;;;13.02;2.15;;;5.80;99.90;;;;;;5071681;28;20488;-59
2022/01/31 08:08:28;;;;;;;14.95;1.70;;;5.80;99.90;;;;;;5073940;28;20039;-59
2022/01/31 08:10:55;;;;;;;19.52;4.25;;;5.80;99.90;;;;;;5073227;28;20016;-59
2022/01/31 08:13:20;;;;;;;18.20;2.88;;;5.80;99.90;;;;;;5074659;28;20044;-59
2022/01/31 08:16:01;;;;;;;21.10;2.50;;;5.80;99.90;;;;;;5075101;28;20025;-59
2022/01/31 08:18:28;;;;;;;22.92;2.97;;;5.80;99.90;;;;;;5073672;28;20021;-58
2022/01/31 08:20:53;;;;;;;15.50;2.25;;;5.80;99.90;;;;;;5074553;28;20099;-58
2022/01/31 08:23:19;;;;;;;21.17;2.47;;;5.80;99.90;;;;;;5073462;28;20103;-58
2022/01/31 08:25:49;;;;;;;19.63;2.30;;;5.80;99.90;;;;;;5074671;28;20120;-59
2022/01/31 08:28:21;;;;;;;18.52;2.83;;;5.80;99.90;;;;;;5074452;28;20484;-58
2022/01/31 08:30:54;;;;;;;21.80;2.45;;;5.80;99.90;;;;;;5074727;28;20024;-59
2022/01/31 08:33:34;;;;;;;21.92;3.08;;;5.90;99.90;;;;;;5089954;28;20024;-58
2022/01/31 08:36:05;;;;;;;18.98;2.78;;;5.90;99.90;;;;;;5074464;28;20044;-59
2022/01/31 08:38:31;;;;;;;23.58;3.58;;;5.90;99.90;;;;;;5074202;28;20046;-59
2022/01/31 08:40:58;;;;;;;23.20;3.03;;;5.90;99.90;;;;;;5074424;28;20111;-59
2022/01/31 08:43:25;;;;;;;27.50;4.93;;;5.90;99.90;;;;;;5089924;28;20031;-59
2022/01/31 08:45:53;;;;;;;26.52;3.47;;;5.90;99.90;;;;;;5074071;28;20028;-58
2022/01/31 08:48:19;;;;;;;17.95;3.05;;;6.00;99.90;;;;;;5074396;28;20075;-58
2022/01/31 08:50:44;;;;;;;29.48;4.53;;;6.00;99.90;;;;;;5074278;28;20484;-58
2022/01/31 08:53:10;;;;;;;27.63;3.67;;;6.00;99.90;;;;;;5073759;28;20094;-58
2022/01/31 08:55:36;;;;;;;21.00;4.38;;;6.00;99.90;;;;;;5073921;28;20052;-58
2022/01/31 08:58:02;;;;;;;31.15;3.40;;;6.00;99.90;;;;;;5073573;28;20052;-59
2022/01/31 09:00:33;;;;;;;22.35;4.07;;;6.00;99.90;;;;;;5073810;28;20052;-58
2022/01/31 09:03:39;;;;;;;25.00;3.85;;;6.00;99.90;;;;;;5074026;28;20016;-58
2022/01/31 09:05:46;;;;;;;16.95;2.63;;;6.00;99.90;;;;;;5073641;28;20043;-58
2022/01/31 09:08:12;;;;;;;16.55;2.83;;;6.00;99.90;;;;;;5073882;28;20495;-58
2022/01/31 09:10:39;;;;;;;24.70;3.53;;;6.10;99.90;;;;;;5073621;28;20025;-59
2022/01/31 09:13:05;;;;;;;26.13;3.47;;;6.10;99.90;;;;;;5073518;28;20043;-58
2022/01/31 09:15:30;;;;;;;28.33;4.07;;;6.10;99.90;;;;;;5073686;28;20111;-58
2022/01/31 09:17:56;;;;;;;33.75;4.80;;;6.10;99.90;;;;;;5072170;28;20115;-59
2022/01/31 09:20:21;;;;;;;29.48;3.95;;;6.10;99.90;;;;;;5073264;28;20020;-59
2022/01/31 09:22:47;;;;;;;27.00;4.38;;;6.20;99.90;;;;;;5073153;28;20024;-59
2022/01/31 09:25:14;;;;;;;24.92;3.45;;;6.20;99.90;;;;;;5073112;28;20029;-59
2022/01/31 09:27:41;;;;;;;22.33;3.80;;;6.20;99.90;;;;;;5072568;28;20016;-59
2022/01/31 09:30:09;;;;;;;21.38;3.17;;;6.20;99.90;;;;;;5070675;28;20075;-59
2022/01/31 09:32:36;;;;;;;17.70;2.72;;;6.20;99.90;;;;;;5073398;28;20013;-59
2022/01/31 09:35:03;;;;;;;28.10;3.85;;;6.20;99.90;;;;;;5073312;28;20488;-59
2022/01/31 09:37:28;;;;;;;29.10;4.35;;;6.20;99.90;;;;;;5073187;28;20033;-59
2022/01/31 09:40:02;;;;;;;24.70;4.43;;;6.20;99.90;;;;;;5073156;28;20017;-59
2022/01/31 09:42:34;;;;;;;16.23;3.00;;;6.10;99.90;;;;;;5073159;28;20082;-59
2022/01/31 09:50:11;;;;;;;27.63;3.95;;;6.20;99.90;;;;;;5073474;28;20563;-59
2022/01/31 09:52:37;;;;;;;20.63;3.97;;;6.20;99.90;;;;;;5071587;28;20036;-59
2022/01/31 09:55:04;;;;;;;25.20;4.43;;;6.20;99.90;;;;;;5071572;28;20111;-59
2022/01/31 09:57:29;;;;;;;22.17;4.00;;;6.20;99.90;;;;;;5072832;28;20421;-59
2022/01/31 09:59:55;;;;;;;21.90;3.60;;;6.20;99.90;;;;;;5072934;28;20096;-59
2022/01/31 10:02:20;;;;;;;21.27;3.80;;;6.20;99.90;;;;;;5069526;28;20032;-59
2022/01/31 10:04:48;;;;;;;23.02;4.40;;;6.20;99.90;;;;;;5087967;28;20522;-59
2022/01/31 10:07:15;;;;;;;29.25;5.20;;;6.20;99.90;;;;;;5071828;28;20030;-59
2022/01/31 10:09:47;;;;;;;24.20;4.57;;;6.20;99.90;;;;;;5071178;28;20064;-59
2022/01/31 10:12:30;;;;;;;26.83;4.43;;;6.20;99.90;;;;;;5061236;28;20631;-59
2022/01/31 10:17:42;;;;;;;32.60;5.28;;;6.20;99.90;;;;;;5057989;28;20054;-59
2022/01/31 10:20:25;;;;;;;31.15;4.78;;;6.20;99.90;;;;;;5072021;28;20024;-59
2022/01/31 10:22:51;;;;;;;33.72;7.10;;;6.30;99.90;;;;;;5056550;28;20013;-59
2022/01/31 10:25:19;;;;;;;35.97;5.22;;;6.30;99.90;;;;;;5068652;28;20025;-59
2022/01/31 10:27:50;;;;;;;34.40;5.82;;;6.30;99.90;;;;;;5061715;28;20393;-59
2022/01/31 10:30:23;;;;;;;35.53;5.68;;;6.40;99.90;;;;;;5060412;28;20032;-59
2022/01/31 10:32:51;;;;;;;40.88;7.65;;;6.40;99.90;;;;;;5066620;28;20099;-59
2022/01/31 10:35:25;;;;;;;39.03;7.22;;;6.40;99.90;;;;;;5051686;28;20031;-59
2022/01/31 10:37:59;;;;;;;26.02;5.53;;;6.40;99.90;;;;;;5051462;28;20028;-59
2022/01/31 10:54:08;;;;;;;27.02;5.80;;;6.50;99.90;;;;;;5072997;28;20025;-59
2022/01/31 10:56:39;;;;;;;26.17;5.20;;;6.50;99.90;;;;;;5074582;28;20063;-59
2022/01/31 10:59:10;;;;;;;36.80;5.38;;;6.50;99.90;;;;;;5075811;28;20021;-59
2022/01/31 11:01:39;;;;;;;36.25;5.72;;;6.50;99.90;;;;;;5070500;28;20051;-59
2022/01/31 11:04:10;;;;;;;35.00;5.70;;;6.50;99.90;;;;;;5065014;28;20055;-60
2022/01/31 11:06:37;;;;;;;28.45;4.68;;;6.50;99.90;;;;;;5060736;28;20033;-59
2022/01/31 11:09:11;;;;;;;37.60;5.13;;;6.50;99.90;;;;;;5072869;28;20488;-59
2022/01/31 11:11:39;;;;;;;20.83;4.50;;;6.50;99.90;;;;;;5070126;28;20025;-58
2022/01/31 11:14:07;;;;;;;36.15;4.85;;;6.50;99.90;;;;;;5064046;28;20105;-59
2022/01/31 11:16:33;;;;;;;25.98;4.57;;;6.50;99.90;;;;;;5074103;28;20476;-59
2022/01/31 11:19:03;;;;;;;21.05;4.18;;;6.50;99.90;;;;;;5073751;28;20383;-59
2022/01/31 11:21:32;;;;;;;;;;;6.50;99.90;;;;;;5060251;28;20070;-59
2022/01/31 11:24:03;;;;;;;27.25;5.43;;;6.50;99.90;;;;;;5066958;28;20323;-59
2022/01/31 11:26:40;;;;;;;26.38;4.32;;;6.40;99.90;;;;;;5083257;28;20836;-59
2022/01/31 11:29:07;;;;;;;23.85;4.07;;;6.40;99.90;;;;;;5058304;28;20029;-59
2022/01/31 11:31:38;;;;;;;21.05;4.07;;;6.40;99.90;;;;;;5075318;28;20477;-59
2022/01/31 11:34:18;;;;;;;23.15;5.60;;;6.40;99.90;;;;;;5066838;28;20445;-59
2022/01/31 11:36:44;;;;;;;;;;;6.40;99.90;;;;;;5074075;28;20043;-59
2022/01/31 11:39:13;;;;;;;25.10;3.72;;;6.30;99.90;;;;;;5073888;28;20302;-59
2022/01/31 11:41:43;;;;;;;22.63;5.50;;;6.30;99.90;;;;;;5071166;28;20374;-59
2022/01/31 11:44:25;;;;;;;30.40;4.70;;;6.30;99.90;;;;;;5073477;28;20107;-60
2022/01/31 11:46:52;;;;;;;24.45;3.97;;;6.40;99.90;;;;;;5073308;28;20639;-59
2022/01/31 11:49:19;;;;;;;30.90;4.47;;;6.40;99.90;;;;;;5073375;28;20031;-59
2022/01/31 11:52:07;;;;;;;29.45;5.50;;;6.40;99.90;;;;;;5072592;28;20388;-59
2022/01/31 11:54:36;;;;;;;34.80;4.80;;;6.40;99.90;;;;;;5071672;28;20477;-59
2022/01/31 11:57:12;;;;;;;26.60;5.03;;;6.40;99.90;;;;;;5073213;28;20017;-59
2022/01/31 11:59:40;;;;;;;28.67;5.40;;;6.40;99.90;;;;;;5070354;28;20012;-59
2022/01/31 12:02:06;;;;;;;22.23;4.15;;;6.40;99.90;;;;;;5073085;28;20032;-59
2022/01/31 12:04:33;;;;;;;29.77;6.03;;;6.40;99.90;;;;;;5072651;28;20017;-59
2022/01/31 12:07:05;;;;;;;18.35;4.05;;;6.40;99.90;;;;;;5073199;28;20108;-59
2022/01/31 12:09:31;;;;;;;35.67;5.40;;;6.40;99.90;;;;;;5071274;28;20093;-59
2022/01/31 12:12:08;;;;;;;27.13;4.22;;;6.40;99.90;;;;;;5072439;28;20492;-59
2022/01/31 12:14:47;;;;;;;23.58;4.43;;;6.40;99.90;;;;;;5072441;28;20032;-60
2022/01/31 12:17:40;;;;;;;29.88;5.38;;;6.40;99.90;;;;;;5072612;28;20024;-59
2022/01/31 12:20:15;;;;;;;25.63;4.90;;;6.40;99.90;;;;;;5072601;28;20520;-59
2022/01/31 12:22:51;;;;;;;28.65;4.63;;;6.40;99.90;;;;;;5073019;28;20020;-60
2022/01/31 12:25:30;;;;;;;25.83;6.05;;;6.50;99.90;;;;;;5073783;28;20056;-59
2022/01/31 12:27:57;;;;;;;23.10;3.58;;;6.50;99.90;;;;;;5074137;28;20078;-59
2022/01/31 12:30:31;;;;;;;31.33;5.00;;;6.50;99.90;;;;;;5061576;28;20393;-59
2022/01/31 12:32:57;;;;;;;29.77;5.88;;;6.50;99.90;;;;;;5070489;28;20028;-59
2022/01/31 12:35:35;;;;;;;25.92;4.25;;;6.50;99.90;;;;;;5053856;28;20037;-59
2022/01/31 12:38:03;;;;;;;24.02;4.68;;;6.50;99.90;;;;;;5069726;28;20040;-59
2022/01/31 12:40:29;;;;;;;25.35;4.97;;;6.50;99.90;;;;;;5053716;28;20017;-59
2022/01/31 12:45:30;;;;;;;;;;;6.50;99.90;;;;;;5054508;28;20027;-59
2022/01/31 12:48:16;;;;;;;29.65;4.70;;;6.50;99.90;;;;;;5054273;28;19904;-59
2022/01/31 12:50:51;;;;;;;36.33;5.53;;;6.50;99.90;;;;;;5054219;28;20388;-59
2022/01/31 12:53:22;;;;;;;27.55;4.75;;;6.50;99.90;;;;;;5053954;28;20036;-59
2022/01/31 12:56:19;;;;;;;28.08;4.55;;;6.50;99.90;;;;;;5054041;28;20013;-59
2022/01/31 12:58:47;;;;;;;33.20;4.82;;;6.60;99.90;;;;;;5054060;28;20040;-59
2022/01/31 13:01:21;;;;;;;30.70;5.15;;;6.60;99.90;;;;;;5054014;28;20048;-59
2022/01/31 13:03:49;;;;;;;29.13;4.30;;;6.60;99.90;;;;;;5053711;28;20416;-59
2022/01/31 13:06:24;;;;;;;28.55;5.47;;;6.60;99.90;;;;;;5053913;28;20082;-59
2022/01/31 13:09:05;;;;;;;36.65;6.70;;;6.60;99.90;;;;;;5053890;28;20496;-59
2022/01/31 13:11:32;;;;;;;36.97;5.40;;;6.60;99.90;;;;;;5053908;28;20037;-59
2022/01/31 13:14:12;;;;;;;21.80;4.95;;;6.60;99.90;;;;;;5052240;28;20064;-59
2022/01/31 13:16:44;;;;;;;33.03;5.70;;;6.60;99.90;;;;;;5053630;28;20024;-59
2022/01/31 13:19:21;;;;;;;30.23;5.90;;;6.60;99.90;;;;;;5069241;28;20500;-59
2022/01/31 13:21:48;;;;;;;25.45;5.05;;;6.60;99.90;;;;;;5053710;28;20477;-59